Terminal Aerodrome Forecast
Issued by NWS

Home | Current Version | Previous Version | Text Only | Print | Product List | Glossary On
Versions: 1 2 3 4 5 6 7 8 9 10 11 12 13 14 15 16 17
801
FTAK31 PAJN 230930 AAA
TAFAWG
TAF AMD
PAWG 230930Z 2310/2406 VRB02KT P6SM BCFG SCT003 BKN050
      TEMPO 2310/2314 1SM BR OVC003
     FM231700 28007KT P6SM BKN050
      AMD LTD TO CLD VIS AND WIND 2306/2315=

USA.gov is the U.S. government's official web portal to all federal, state and local government web resources and services.